Time;durP1;ratioP1;P1;durP2;ratioP2;P2;SDS_P1;SDS_P2;PMS_P1;PMS_P2;Temp;Humidity;BMP_temperature;BMP_pressure;BME280_temperature;BME280_humidity;BME280_pressure;Samples;Min_cycle;Max_cycle;Signal;HPM_P1;HPM_P2
2023/07/30 00:00:01;;;;;;;2.47;1.50;;;;;;;;;;4996029;28;20579;-64
2023/07/30 00:02:27;;;;;;;2.47;1.70;;;;;;;;;;5000734;28;20502;-64
2023/07/30 00:04:53;;;;;;;2.13;1.40;;;;;;;;;;5000584;28;20104;-64
2023/07/30 00:07:18;;;;;;;2.42;1.67;;;;;;;;;;4993211;28;20929;-64
2023/07/30 00:09:43;;;;;;;2.38;1.23;;;;;;;;;;5002336;28;20768;-64
2023/07/30 00:12:09;;;;;;;2.33;1.65;;;;;;;;;;5001134;28;20486;-64
2023/07/30 00:14:35;;;;;;;2.47;1.40;;;;;;;;;;4999723;28;20033;-64
2023/07/30 00:17:01;;;;;;;1.90;1.23;;;;;;;;;;5004640;28;20042;-64
2023/07/30 00:19:26;;;;;;;1.58;1.20;;;;;;;;;;4983224;28;20041;-64
2023/07/30 00:21:52;;;;;;;3.38;1.50;;;;;;;;;;4989873;28;20112;-64
2023/07/30 00:24:17;;;;;;;3.15;1.60;;;;;;;;;;4999756;28;20147;-64
2023/07/30 00:26:42;;;;;;;3.17;1.42;;;;;;;;;;5002218;28;20037;-65
2023/07/30 00:29:08;;;;;;;2.83;1.77;;;;;;;;;;5001291;28;20050;-64
2023/07/30 00:31:33;;;;;;;2.70;1.30;;;;;;;;;;5003527;28;20529;-64
2023/07/30 00:33:58;;;;;;;3.08;1.50;;;;;;;;;;4995634;28;20041;-64
2023/07/30 00:36:24;;;;;;;2.63;1.60;;;;;;;;;;4994007;28;20045;-64
2023/07/30 00:38:49;;;;;;;3.40;1.70;;;;;;;;;;5000149;28;20041;-64
2023/07/30 00:41:15;;;;;;;3.20;1.77;;;;;;;;;;5003739;28;20050;-64
2023/07/30 00:43:40;;;;;;;2.13;1.50;;;;;;;;;;4994916;28;20038;-64
2023/07/30 00:46:06;;;;;;;2.78;1.60;;;;;;;;;;5003366;28;20042;-64
2023/07/30 00:48:31;;;;;;;2.58;1.80;;;;;;;;;;4987536;28;20038;-65
2023/07/30 00:50:58;;;;;;;1.77;1.45;;;;;;;;;;5001660;28;20560;-64
2023/07/30 00:53:25;;;;;;;2.22;1.60;;;;;;;;;;4980279;28;20038;-64
2023/07/30 00:55:51;;;;;;;1.33;1.10;;;;;;;;;;4996581;28;20047;-64
2023/07/30 00:58:18;;;;;;;2.70;1.70;;;;;;;;;;5002052;28;20505;-64
2023/07/30 01:00:44;;;;;;;2.40;1.60;;;;;;;;;;5000846;28;20515;-64
2023/07/30 01:03:10;;;;;;;2.38;1.52;;;;;;;;;;4984866;28;20034;-64
2023/07/30 01:05:35;;;;;;;1.88;1.30;;;;;;;;;;4995708;28;20067;-63
2023/07/30 01:08:01;;;;;;;3.03;1.60;;;;;;;;;;4997222;28;20545;-65
2023/07/30 01:10:27;;;;;;;1.50;1.13;;;;;;;;;;4998364;28;20081;-63
2023/07/30 01:12:53;;;;;;;3.03;1.50;;;;;;;;;;4998986;28;20044;-65
2023/07/30 01:15:18;;;;;;;2.55;1.83;;;;;;;;;;4995560;28;20088;-65
2023/07/30 01:17:45;;;;;;;1.75;1.50;;;;;;;;;;4982889;28;20109;-65
2023/07/30 01:20:10;;;;;;;2.65;1.77;;;;;;;;;;4997138;28;20037;-65
2023/07/30 01:22:36;;;;;;;3.17;1.60;;;;;;;;;;4996876;28;20064;-65
2023/07/30 01:25:02;;;;;;;4.60;2.05;;;;;;;;;;4997041;28;20089;-65
2023/07/30 01:27:33;;;;;;;2.88;1.55;;;;;;;;;;4995814;28;20422;-65
2023/07/30 01:30:11;;;;;;;2.75;1.55;;;;;;;;;;4993781;28;20132;-65
2023/07/30 01:32:37;;;;;;;4.15;1.63;;;;;;;;;;5001141;28;20037;-65
2023/07/30 01:35:05;;;;;;;2.53;1.67;;;;;;;;;;4999970;28;20030;-65
2023/07/30 01:37:31;;;;;;;2.50;1.60;;;;;;;;;;5002883;28;20046;-65
2023/07/30 01:39:57;;;;;;;2.55;1.58;;;;;;;;;;4991898;28;20778;-65
2023/07/30 01:42:28;;;;;;;3.00;1.88;;;;;;;;;;4997846;28;20030;-65
2023/07/30 01:44:54;;;;;;;4.00;1.73;;;;;;;;;;5001892;28;20033;-65
2023/07/30 01:47:19;;;;;;;2.15;1.42;;;;;;;;;;5000597;28;20788;-64
2023/07/30 01:49:44;;;;;;;2.92;1.45;;;;;;;;;;5003968;28;20453;-64
2023/07/30 01:52:10;;;;;;;2.53;1.60;;;;;;;;;;5001392;28;20045;-65
2023/07/30 01:54:35;;;;;;;4.50;1.60;;;;;;;;;;5005882;28;20030;-65
2023/07/30 01:57:01;;;;;;;2.03;1.40;;;;;;;;;;5002835;28;20585;-64
2023/07/30 01:59:26;;;;;;;2.13;1.67;;;;;;;;;;5006611;28;20034;-64
2023/07/30 02:01:52;;;;;;;2.25;1.50;;;;;;;;;;4988682;28;20046;-64
2023/07/30 02:04:17;;;;;;;5.53;1.70;;;;;;;;;;5003543;28;20477;-64
2023/07/30 02:06:43;;;;;;;1.90;1.50;;;;;;;;;;5002465;28;20040;-65
2023/07/30 02:09:08;;;;;;;2.28;1.58;;;;;;;;;;5003119;28;20037;-65
2023/07/30 02:11:34;;;;;;;2.08;1.48;;;;;;;;;;4993893;28;20548;-65
2023/07/30 02:13:59;;;;;;;2.78;1.48;;;;;;;;;;5005513;28;20084;-65
2023/07/30 02:16:24;;;;;;;2.42;1.48;;;;;;;;;;5005845;28;20034;-64
2023/07/30 02:18:50;;;;;;;2.30;1.40;;;;;;;;;;5003718;28;20049;-64
2023/07/30 02:21:15;;;;;;;2.20;1.30;;;;;;;;;;5004522;28;20033;-64
2023/07/30 02:23:40;;;;;;;2.17;1.50;;;;;;;;;;5001812;28;20033;-64
2023/07/30 02:26:06;;;;;;;2.40;1.58;;;;;;;;;;4985641;28;20042;-63
2023/07/30 02:28:31;;;;;;;4.30;1.42;;;;;;;;;;4997501;28;20140;-63
2023/07/30 02:30:56;;;;;;;2.17;1.52;;;;;;;;;;5005812;28;20037;-65
2023/07/30 02:33:22;;;;;;;1.77;1.42;;;;;;;;;;4999983;28;20636;-64
2023/07/30 02:35:47;;;;;;;2.25;1.30;;;;;;;;;;5005115;28;20065;-65
2023/07/30 02:38:12;;;;;;;2.08;1.58;;;;;;;;;;5002300;28;20564;-65
2023/07/30 02:40:38;;;;;;;2.13;1.58;;;;;;;;;;4990546;28;20038;-64
2023/07/30 02:43:03;;;;;;;2.03;1.38;;;;;;;;;;5008764;28;20128;-65
2023/07/30 02:45:29;;;;;;;2.08;1.40;;;;;;;;;;5003605;28;20060;-64
2023/07/30 02:47:55;;;;;;;2.33;1.27;;;;;;;;;;5002571;28;20042;-65
2023/07/30 02:50:20;;;;;;;1.77;1.10;;;;;;;;;;5001912;28;20362;-65
2023/07/30 02:52:46;;;;;;;3.72;1.50;;;;;;;;;;5003633;28;20049;-65
2023/07/30 02:55:11;;;;;;;2.05;1.42;;;;;;;;;;4997096;28;20488;-64
2023/07/30 02:57:37;;;;;;;4.00;1.55;;;;;;;;;;5005882;28;20026;-64
2023/07/30 03:00:04;;;;;;;3.58;1.50;;;;;;;;;;5004280;28;20046;-64
2023/07/30 03:02:29;;;;;;;3.13;1.85;;;;;;;;;;5002583;28;20049;-64
2023/07/30 03:04:54;;;;;;;3.47;1.58;;;;;;;;;;5002979;28;20038;-64
2023/07/30 03:07:20;;;;;;;1.85;1.27;;;;;;;;;;4987747;28;20164;-64
2023/07/30 03:09:46;;;;;;;2.75;1.80;;;;;;;;;;5000448;28;20034;-64
2023/07/30 03:12:11;;;;;;;2.92;1.52;;;;;;;;;;5005558;28;20046;-65
2023/07/30 03:14:36;;;;;;;2.95;1.52;;;;;;;;;;5008999;28;20053;-64
2023/07/30 03:17:02;;;;;;;2.42;1.35;;;;;;;;;;5002476;28;20137;-65
2023/07/30 03:19:27;;;;;;;2.25;1.33;;;;;;;;;;5000343;28;20104;-64
2023/07/30 03:21:53;;;;;;;1.92;1.33;;;;;;;;;;4989747;28;20037;-64
2023/07/30 03:24:18;;;;;;;2.08;1.50;;;;;;;;;;5008806;28;20831;-65
2023/07/30 03:26:43;;;;;;;2.28;1.50;;;;;;;;;;5001494;28;20063;-64
2023/07/30 03:29:09;;;;;;;2.03;1.50;;;;;;;;;;5001255;28;20068;-64
2023/07/30 03:31:35;;;;;;;2.53;1.77;;;;;;;;;;5003226;28;20433;-64
2023/07/30 03:34:00;;;;;;;2.53;1.70;;;;;;;;;;5001244;28;20525;-64
2023/07/30 03:36:25;;;;;;;3.00;1.42;;;;;;;;;;4992656;28;20034;-64
2023/07/30 03:38:51;;;;;;;2.35;1.63;;;;;;;;;;5007907;28;20120;-65
2023/07/30 03:41:16;;;;;;;3.42;1.65;;;;;;;;;;4999204;28;20103;-64
2023/07/30 03:43:41;;;;;;;1.77;1.42;;;;;;;;;;5004052;28;20033;-64
2023/07/30 03:46:07;;;;;;;2.58;1.50;;;;;;;;;;5007278;28;20037;-64
2023/07/30 03:48:32;;;;;;;2.42;1.50;;;;;;;;;;5006078;28;20422;-64
2023/07/30 03:50:57;;;;;;;3.13;1.90;;;;;;;;;;4989918;28;20064;-64
2023/07/30 03:53:23;;;;;;;2.28;1.70;;;;;;;;;;4999532;28;20030;-64
2023/07/30 03:55:48;;;;;;;2.20;1.50;;;;;;;;;;4987691;28;20050;-64
2023/07/30 03:58:14;;;;;;;2.35;1.80;;;;;;;;;;4998068;28;20682;-64
2023/07/30 04:00:40;;;;;;;2.55;1.67;;;;;;;;;;5002653;28;20561;-64
2023/07/30 04:03:05;;;;;;;2.75;1.52;;;;;;;;;;4998039;28;20076;-64
2023/07/30 04:05:30;;;;;;;3.65;1.90;;;;;;;;;;4972724;28;20041;-64
2023/07/30 04:07:56;;;;;;;3.03;1.80;;;;;;;;;;5000938;28;20041;-64
2023/07/30 04:10:22;;;;;;;2.80;1.90;;;;;;;;;;5005485;28;20450;-64
2023/07/30 04:12:48;;;;;;;2.80;1.80;;;;;;;;;;4999009;28;20141;-64
2023/07/30 04:15:14;;;;;;;3.03;1.50;;;;;;;;;;5002481;28;20033;-64
2023/07/30 04:17:40;;;;;;;3.00;1.85;;;;;;;;;;4996371;28;20046;-64
2023/07/30 04:20:06;;;;;;;3.58;1.90;;;;;;;;;;4986010;28;20035;-64
2023/07/30 04:22:31;;;;;;;4.18;1.75;;;;;;;;;;5001782;28;20041;-64
2023/07/30 04:24:57;;;;;;;3.25;1.80;;;;;;;;;;5004622;28;21755;-64
2023/07/30 04:27:22;;;;;;;4.05;2.00;;;;;;;;;;4990197;28;20038;-64
2023/07/30 04:29:48;;;;;;;4.10;1.88;;;;;;;;;;4997470;28;20650;-64
2023/07/30 04:32:13;;;;;;;3.83;1.80;;;;;;;;;;4988882;28;20075;-64
2023/07/30 04:34:39;;;;;;;2.97;1.90;;;;;;;;;;4999622;28;20041;-64
2023/07/30 04:37:04;;;;;;;2.88;1.90;;;;;;;;;;5006837;28;20046;-64
2023/07/30 04:39:32;;;;;;;2.55;1.73;;;;;;;;;;5008779;28;20483;-64
2023/07/30 04:41:57;;;;;;;2.28;1.50;;;;;;;;;;5003566;28;21358;-64
2023/07/30 04:44:23;;;;;;;1.98;1.10;;;;;;;;;;5000132;28;20034;-64
2023/07/30 04:46:48;;;;;;;2.35;1.80;;;;;;;;;;4986987;28;20030;-64
2023/07/30 04:49:13;;;;;;;2.60;1.88;;;;;;;;;;5002100;28;20057;-64
2023/07/30 04:51:39;;;;;;;3.75;2.10;;;;;;;;;;4996836;28;20033;-64
2023/07/30 04:54:04;;;;;;;5.10;3.03;;;;;;;;;;4999932;28;20041;-64
2023/07/30 04:56:29;;;;;;;3.88;3.17;;;;;;;;;;5001981;28;20053;-64
2023/07/30 04:58:55;;;;;;;6.03;3.15;;;;;;;;;;4999279;28;20136;-64
2023/07/30 05:01:20;;;;;;;4.72;3.38;;;;;;;;;;4987189;28;20993;-64
2023/07/30 05:03:46;;;;;;;6.53;3.72;;;;;;;;;;4986025;28;20034;-64
2023/07/30 05:06:11;;;;;;;5.43;3.28;;;;;;;;;;5003299;28;20095;-64
2023/07/30 05:08:36;;;;;;;6.35;4.15;;;;;;;;;;5003714;28;20545;-64
2023/07/30 05:11:02;;;;;;;4.22;2.08;;;;;;;;;;5004288;28;20121;-64
2023/07/30 05:13:27;;;;;;;4.82;3.28;;;;;;;;;;4996893;28;20034;-64
2023/07/30 05:15:52;;;;;;;7.40;3.45;;;;;;;;;;4991239;28;20056;-64
2023/07/30 05:18:18;;;;;;;5.07;2.92;;;;;;;;;;4996239;28;20522;-64
2023/07/30 05:20:46;;;;;;;9.40;3.80;;;;;;;;;;4999912;28;20555;-64
2023/07/30 05:23:11;;;;;;;4.85;3.30;;;;;;;;;;5008764;28;20493;-64
2023/07/30 05:25:36;;;;;;;2.67;1.70;;;;;;;;;;5006499;28;20040;-64
2023/07/30 05:28:02;;;;;;;6.07;3.78;;;;;;;;;;5001015;28;20041;-64
2023/07/30 05:30:28;;;;;;;4.35;3.40;;;;;;;;;;4990969;28;20038;-64
2023/07/30 05:32:53;;;;;;;3.58;2.47;;;;;;;;;;5004390;28;20060;-64
2023/07/30 05:35:19;;;;;;;5.85;3.45;;;;;;;;;;5001221;28;20045;-64
2023/07/30 05:37:44;;;;;;;7.80;2.60;;;;;;;;;;5004000;28;20124;-64
2023/07/30 05:40:10;;;;;;;4.70;3.17;;;;;;;;;;4999190;28;20038;-64
2023/07/30 05:42:35;;;;;;;4.88;2.65;;;;;;;;;;4999656;28;20095;-64
2023/07/30 05:45:01;;;;;;;4.43;2.65;;;;;;;;;;4990523;28;20035;-64
2023/07/30 05:47:26;;;;;;;5.45;3.25;;;;;;;;;;5001836;28;20569;-64
2023/07/30 05:49:51;;;;;;;4.88;2.70;;;;;;;;;;4998982;28;20529;-64
2023/07/30 05:52:17;;;;;;;5.03;2.63;;;;;;;;;;5003694;28;20646;-64
2023/07/30 05:54:42;;;;;;;4.82;2.53;;;;;;;;;;5000822;28;20057;-64
2023/07/30 05:57:07;;;;;;;3.80;2.05;;;;;;;;;;5002396;28;20046;-64
2023/07/30 05:59:33;;;;;;;4.38;2.25;;;;;;;;;;4971684;28;20050;-64
2023/07/30 06:02:03;;;;;;;6.85;2.60;;;;;;;;;;4974102;28;20054;-64
2023/07/30 06:04:28;;;;;;;5.13;2.60;;;;;;;;;;4995549;28;21409;-63
2023/07/30 06:06:54;;;;;;;4.18;2.40;;;;;;;;;;5000437;28;20053;-64
2023/07/30 06:09:19;;;;;;;4.45;2.10;;;;;;;;;;4998494;28;20143;-64
2023/07/30 06:11:44;;;;;;;6.30;2.33;;;;;;;;;;4987913;28;20041;-64
2023/07/30 06:14:10;;;;;;;6.75;2.22;;;;;;;;;;4994840;28;20034;-64
2023/07/30 06:16:35;;;;;;;4.65;2.45;;;;;;;;;;4986005;28;20045;-64
2023/07/30 06:19:01;;;;;;;5.35;2.70;;;;;;;;;;4986508;28;20049;-64
2023/07/30 06:21:26;;;;;;;5.43;2.33;;;;;;;;;;4987610;28;20061;-64
2023/07/30 06:23:51;;;;;;;4.40;2.40;;;;;;;;;;4998399;28;20505;-64
2023/07/30 06:26:17;;;;;;;3.70;2.00;;;;;;;;;;4979653;28;20038;-64
2023/07/30 06:28:42;;;;;;;5.43;2.38;;;;;;;;;;4998982;28;20514;-64
2023/07/30 06:31:07;;;;;;;4.95;2.55;;;;;;;;;;4998565;28;20042;-64
2023/07/30 06:33:33;;;;;;;3.65;2.25;;;;;;;;;;4999738;28;20104;-64
2023/07/30 06:35:58;;;;;;;5.10;2.28;;;;;;;;;;4998061;28;20110;-64
2023/07/30 06:38:23;;;;;;;5.20;2.10;;;;;;;;;;4999467;28;20064;-64
2023/07/30 06:40:49;;;;;;;3.50;2.03;;;;;;;;;;4987907;28;20132;-64
2023/07/30 06:43:14;;;;;;;2.67;1.60;;;;;;;;;;4998074;28;20046;-64
2023/07/30 06:45:39;;;;;;;3.85;1.90;;;;;;;;;;4985339;28;20161;-63
2023/07/30 06:48:05;;;;;;;4.10;2.45;;;;;;;;;;4986693;28;20561;-64
2023/07/30 06:50:30;;;;;;;3.58;1.98;;;;;;;;;;4987626;28;20170;-64
2023/07/30 06:52:55;;;;;;;4.75;1.90;;;;;;;;;;4997243;28;20041;-64
2023/07/30 06:55:21;;;;;;;4.65;2.00;;;;;;;;;;4978549;28;20042;-64
2023/07/30 06:57:46;;;;;;;3.15;1.70;;;;;;;;;;4990449;28;20112;-65
2023/07/30 07:00:12;;;;;;;4.15;2.10;;;;;;;;;;4995417;28;20041;-64
2023/07/30 07:02:38;;;;;;;2.42;1.30;;;;;;;;;;4995590;28;20434;-64
2023/07/30 07:05:03;;;;;;;3.50;1.77;;;;;;;;;;4995032;28;20033;-65
2023/07/30 07:07:30;;;;;;;4.07;2.28;;;;;;;;;;4996546;28;20921;-64
2023/07/30 07:09:55;;;;;;;2.63;1.90;;;;;;;;;;4989144;28;20137;-64
2023/07/30 07:12:21;;;;;;;3.00;1.90;;;;;;;;;;4998923;28;20108;-64
2023/07/30 07:14:46;;;;;;;3.80;1.90;;;;;;;;;;4991278;28;20663;-65
2023/07/30 07:17:11;;;;;;;4.63;2.10;;;;;;;;;;4994409;28;20076;-65
2023/07/30 07:19:37;;;;;;;2.45;1.33;;;;;;;;;;4997609;28;20033;-64
2023/07/30 07:22:04;;;;;;;3.78;2.08;;;;;;;;;;5001405;28;20076;-64
2023/07/30 07:24:30;;;;;;;2.83;1.90;;;;;;;;;;4988445;28;20142;-64
2023/07/30 07:26:56;;;;;;;3.45;1.67;;;;;;;;;;4999122;28;20115;-65
2023/07/30 07:29:21;;;;;;;3.05;1.88;;;;;;;;;;4998556;28;20554;-65
2023/07/30 07:31:47;;;;;;;3.50;1.98;;;;;;;;;;4998874;28;20694;-65
2023/07/30 07:34:13;;;;;;;4.20;2.17;;;;;;;;;;4994919;28;20572;-65
2023/07/30 07:36:38;;;;;;;2.33;1.50;;;;;;;;;;4988058;28;20743;-65
2023/07/30 07:39:04;;;;;;;3.78;1.92;;;;;;;;;;4999425;28;20057;-65
2023/07/30 07:41:29;;;;;;;4.72;2.00;;;;;;;;;;4998840;28;20115;-65
2023/07/30 07:43:55;;;;;;;3.03;1.52;;;;;;;;;;4993749;28;20579;-65
2023/07/30 07:46:21;;;;;;;3.75;1.35;;;;;;;;;;4990251;28;20042;-65
2023/07/30 07:48:46;;;;;;;2.42;1.40;;;;;;;;;;4996391;28;20042;-65
2023/07/30 07:51:12;;;;;;;2.20;1.40;;;;;;;;;;4990299;28;20465;-65
2023/07/30 07:53:38;;;;;;;0.95;0.82;;;;;;;;;;4998230;28;20038;-65
2023/07/30 07:56:04;;;;;;;9.93;1.98;;;;;;;;;;4998742;28;20096;-64
2023/07/30 07:58:31;;;;;;;2.13;1.40;;;;;;;;;;4994144;28;20724;-64
2023/07/30 08:00:57;;;;;;;2.28;1.15;;;;;;;;;;4990262;28;20045;-64
2023/07/30 08:03:23;;;;;;;2.22;1.35;;;;;;;;;;4992128;28;20125;-64
2023/07/30 08:05:49;;;;;;;3.08;1.45;;;;;;;;;;4984960;28;20792;-64
2023/07/30 08:08:15;;;;;;;2.10;1.40;;;;;;;;;;4980112;28;20085;-64
2023/07/30 08:10:43;;;;;;;2.40;1.38;;;;;;;;;;4996781;28;20038;-64
2023/07/30 08:13:11;;;;;;;1.75;1.33;;;;;;;;;;4995221;28;20718;-64
2023/07/30 08:15:37;;;;;;;2.40;1.13;;;;;;;;;;4994471;28;20100;-64
2023/07/30 08:18:03;;;;;;;1.73;1.30;;;;;;;;;;4988039;28;20045;-64
2023/07/30 08:20:28;;;;;;;1.85;1.25;;;;;;;;;;4994310;28;20587;-64
2023/07/30 08:22:53;;;;;;;2.13;1.40;;;;;;;;;;4996889;28;20196;-64
2023/07/30 08:25:19;;;;;;;1.00;0.90;;;;;;;;;;4994794;28;20383;-64
2023/07/30 08:27:44;;;;;;;3.08;1.40;;;;;;;;;;4999345;28;20098;-64
2023/07/30 08:30:10;;;;;;;2.10;1.48;;;;;;;;;;4996700;28;20157;-64
2023/07/30 08:32:35;;;;;;;1.27;1.00;;;;;;;;;;4968905;28;20552;-64
2023/07/30 08:35:01;;;;;;;2.35;1.50;;;;;;;;;;4996189;28;20053;-64
2023/07/30 08:37:26;;;;;;;2.45;1.30;;;;;;;;;;4996763;28;20127;-64
2023/07/30 08:39:52;;;;;;;2.00;1.15;;;;;;;;;;4979636;28;20073;-64
2023/07/30 08:42:17;;;;;;;2.28;1.30;;;;;;;;;;4995593;28;20052;-63
2023/07/30 08:44:43;;;;;;;3.30;1.70;;;;;;;;;;4997345;28;20045;-64
2023/07/30 08:47:09;;;;;;;2.50;1.40;;;;;;;;;;4988525;28;20509;-64
2023/07/30 08:49:34;;;;;;;3.17;1.30;;;;;;;;;;4993892;28;20047;-64
2023/07/30 08:52:02;;;;;;;2.85;1.23;;;;;;;;;;4997467;28;20041;-64
2023/07/30 08:54:30;;;;;;;3.10;1.50;;;;;;;;;;4992100;28;20037;-64
2023/07/30 08:56:57;;;;;;;2.95;1.40;;;;;;;;;;4997545;28;20139;-65
2023/07/30 08:59:24;;;;;;;2.78;1.50;;;;;;;;;;5000312;28;20228;-64
2023/07/30 09:01:51;;;;;;;2.28;1.00;;;;;;;;;;4971230;28;20073;-64
2023/07/30 09:04:17;;;;;;;3.78;1.50;;;;;;;;;;4998032;28;20042;-64
2023/07/30 09:06:43;;;;;;;2.80;1.50;;;;;;;;;;4996437;28;20038;-65
2023/07/30 09:09:12;;;;;;;3.55;1.33;;;;;;;;;;4991831;28;20088;-63
2023/07/30 09:11:38;;;;;;;3.90;1.30;;;;;;;;;;4995120;28;20111;-64
2023/07/30 09:14:05;;;;;;;3.03;1.55;;;;;;;;;;4985749;28;20054;-64
2023/07/30 09:16:31;;;;;;;3.78;1.42;;;;;;;;;;4999164;28;20042;-64
2023/07/30 09:18:56;;;;;;;2.13;1.63;;;;;;;;;;4997923;28;20115;-64
2023/07/30 09:21:34;;;;;;;2.45;1.60;;;;;;;;;;4989472;28;20460;-65
2023/07/30 09:24:06;;;;;;;3.22;1.67;;;;;;;;;;4982493;28;20109;-64
2023/07/30 09:26:46;;;;;;;3.40;1.92;;;;;;;;;;4983688;28;20130;-65
2023/07/30 09:29:12;;;;;;;2.78;2.00;;;;;;;;;;4994723;28;20041;-63
2023/07/30 09:31:48;;;;;;;2.65;1.77;;;;;;;;;;4996453;28;20890;-63
2023/07/30 09:34:17;;;;;;;4.65;2.25;;;;;;;;;;4996837;28;20034;-62
2023/07/30 09:36:44;;;;;;;3.38;1.75;;;;;;;;;;4996006;28;20041;-63
2023/07/30 09:39:19;;;;;;;2.78;1.80;;;;;;;;;;4985943;28;20192;-63
2023/07/30 09:41:45;;;;;;;2.78;2.15;;;;;;;;;;4995264;28;20077;-65
2023/07/30 09:44:11;;;;;;;3.33;2.00;;;;;;;;;;4994413;28;20092;-63
2023/07/30 09:46:46;;;;;;;3.85;2.45;;;;;;;;;;4997265;28;20107;-65
2023/07/30 09:49:11;;;;;;;3.63;2.15;;;;;;;;;;4995048;28;20470;-63
2023/07/30 09:51:39;;;;;;;4.30;1.90;;;;;;;;;;4988866;28;20043;-63
2023/07/30 09:54:07;;;;;;;3.33;2.10;;;;;;;;;;4994421;28;20058;-64
2023/07/30 09:56:33;;;;;;;4.22;2.67;;;;;;;;;;4992629;28;20038;-63
2023/07/30 09:58:58;;;;;;;3.42;2.28;;;;;;;;;;4990609;28;20037;-64
2023/07/30 10:01:26;;;;;;;2.17;1.80;;;;;;;;;;4993874;28;20042;-64
2023/07/30 10:03:56;;;;;;;3.63;2.22;;;;;;;;;;4983396;28;20053;-63
2023/07/30 10:06:25;;;;;;;4.18;2.55;;;;;;;;;;4991952;28;20058;-64
2023/07/30 10:08:52;;;;;;;3.15;2.60;;;;;;;;;;4995012;28;20070;-63
2023/07/30 10:11:19;;;;;;;4.22;2.30;;;;;;;;;;5000849;28;20037;-64
2023/07/30 10:13:45;;;;;;;2.88;2.47;;;;;;;;;;5001985;28;20041;-64
2023/07/30 10:16:11;;;;;;;3.38;2.67;;;;;;;;;;4988626;28;20042;-64
2023/07/30 10:18:40;;;;;;;2.90;2.60;;;;;;;;;;4998232;28;20140;-65
2023/07/30 10:21:24;;;;;;;4.03;2.40;;;;;;;;;;5000694;28;20040;-66
2023/07/30 10:24:03;;;;;;;3.30;2.72;;;;;;;;;;4996571;28;20045;-65
2023/07/30 10:26:35;;;;;;;3.47;2.60;;;;;;;;;;4997387;28;20042;-65
2023/07/30 10:29:11;;;;;;;3.65;2.78;;;;;;;;;;4973933;28;20645;-65
2023/07/30 10:31:41;;;;;;;3.20;2.70;;;;;;;;;;4994945;28;20041;-65
2023/07/30 10:34:09;;;;;;;3.72;3.00;;;;;;;;;;4996345;28;20038;-65
2023/07/30 10:36:41;;;;;;;4.57;2.63;;;;;;;;;;4999187;28;20033;-64
2023/07/30 10:39:29;;;;;;;4.10;3.15;;;;;;;;;;4987086;28;20441;-64
2023/07/30 10:41:57;;;;;;;3.38;2.90;;;;;;;;;;4995779;28;20057;-64
2023/07/30 10:44:31;;;;;;;3.50;2.80;;;;;;;;;;4996977;28;20462;-67
2023/07/30 10:46:58;;;;;;;3.88;3.40;;;;;;;;;;4994964;28;20037;-66
2023/07/30 10:49:25;;;;;;;4.20;3.10;;;;;;;;;;4994739;28;20076;-67
2023/07/30 10:51:55;;;;;;;3.67;2.90;;;;;;;;;;4985581;28;20054;-67
2023/07/30 10:54:22;;;;;;;3.95;2.63;;;;;;;;;;4993738;28;20466;-66
2023/07/30 10:56:47;;;;;;;4.55;2.97;;;;;;;;;;4997675;28;20048;-65
2023/07/30 10:59:14;;;;;;;5.32;3.63;;;;;;;;;;4993951;28;20049;-66
2023/07/30 11:01:42;;;;;;;4.57;3.40;;;;;;;;;;4990538;28;20048;-63
2023/07/30 11:04:15;;;;;;;5.18;3.80;;;;;;;;;;4978419;28;20049;-63
2023/07/30 11:06:49;;;;;;;4.68;3.42;;;;;;;;;;4996968;28;20740;-66
2023/07/30 11:09:25;;;;;;;6.35;4.13;;;;;;;;;;4995144;28;20041;-63
2023/07/30 11:11:52;;;;;;;4.70;4.18;;;;;;;;;;4995758;28;20484;-65
2023/07/30 11:14:20;;;;;;;5.30;3.67;;;;;;;;;;4993012;28;20477;-66
2023/07/30 11:16:50;;;;;;;4.57;4.15;;;;;;;;;;4969502;28;20050;-64
2023/07/30 11:19:15;;;;;;;5.22;4.10;;;;;;;;;;4994987;28;20095;-63
2023/07/30 11:21:45;;;;;;;5.07;4.03;;;;;;;;;;4992128;28;20810;-65
2023/07/30 11:24:11;;;;;;;5.17;4.40;;;;;;;;;;4995431;28;20050;-65
2023/07/30 11:26:36;;;;;;;7.05;4.15;;;;;;;;;;4993334;28;20046;-66
2023/07/30 11:29:19;;;;;;;4.85;3.63;;;;;;;;;;4966201;28;20034;-63
2023/07/30 11:31:45;;;;;;;4.90;3.70;;;;;;;;;;4996587;28;20052;-64
2023/07/30 11:34:12;;;;;;;3.80;3.20;;;;;;;;;;4993683;28;20088;-64
2023/07/30 11:36:38;;;;;;;4.85;3.42;;;;;;;;;;4995627;28;20154;-64
2023/07/30 11:39:04;;;;;;;4.07;3.17;;;;;;;;;;4993342;28;20091;-63
2023/07/30 11:41:30;;;;;;;3.90;3.20;;;;;;;;;;4986072;28;20039;-64
2023/07/30 11:43:55;;;;;;;4.63;2.85;;;;;;;;;;4993423;28;20053;-64
2023/07/30 11:46:22;;;;;;;3.22;2.67;;;;;;;;;;4996687;28;20125;-64
2023/07/30 11:48:50;;;;;;;3.58;2.75;;;;;;;;;;4996150;28;20052;-64
2023/07/30 11:51:33;;;;;;;4.13;2.63;;;;;;;;;;4995297;28;20088;-64
2023/07/30 11:54:01;;;;;;;3.63;2.30;;;;;;;;;;4982086;28;20038;-63
2023/07/30 11:56:28;;;;;;;3.85;2.72;;;;;;;;;;4993545;28;20045;-64
2023/07/30 11:59:14;;;;;;;3.95;2.80;;;;;;;;;;4994242;28;20038;-64
2023/07/30 12:01:42;;;;;;;3.83;2.58;;;;;;;;;;4991945;28;20050;-63
2023/07/30 12:04:07;;;;;;;3.67;2.70;;;;;;;;;;4967365;28;20697;-63
2023/07/30 12:06:47;;;;;;;4.15;2.72;;;;;;;;;;4995371;28;20056;-63
2023/07/30 12:09:16;;;;;;;3.78;2.70;;;;;;;;;;4978310;28;20052;-63
2023/07/30 12:11:45;;;;;;;4.10;2.30;;;;;;;;;;4995398;28;20085;-63
2023/07/30 12:14:11;;;;;;;3.17;2.60;;;;;;;;;;4995388;28;20149;-62
2023/07/30 12:16:37;;;;;;;3.00;2.63;;;;;;;;;;4983138;28;20566;-65
2023/07/30 12:19:02;;;;;;;3.47;2.50;;;;;;;;;;4992993;28;20037;-63
2023/07/30 12:21:28;;;;;;;3.75;2.55;;;;;;;;;;4993709;28;20049;-65
2023/07/30 12:23:53;;;;;;;4.85;2.90;;;;;;;;;;4994064;28;20045;-65
2023/07/30 12:26:18;;;;;;;3.70;2.20;;;;;;;;;;4995879;28;20045;-65
2023/07/30 12:28:44;;;;;;;3.33;2.20;;;;;;;;;;4994178;28;20132;-63
2023/07/30 12:31:09;;;;;;;1.85;1.50;;;;;;;;;;4980857;28;20710;-63
2023/07/30 12:33:35;;;;;;;2.70;1.30;;;;;;;;;;4993886;28;20038;-63
2023/07/30 12:36:00;;;;;;;2.50;1.33;;;;;;;;;;4993490;28;20046;-66
2023/07/30 12:38:25;;;;;;;1.75;1.35;;;;;;;;;;4993997;28;20033;-65
2023/07/30 12:40:51;;;;;;;1.70;1.15;;;;;;;;;;4992049;28;20041;-65
2023/07/30 12:43:18;;;;;;;2.50;1.33;;;;;;;;;;4995431;28;20037;-65
2023/07/30 12:45:44;;;;;;;1.63;0.90;;;;;;;;;;4983734;28;20042;-65
2023/07/30 12:48:09;;;;;;;2.42;1.45;;;;;;;;;;4992563;28;20037;-65
2023/07/30 12:50:35;;;;;;;2.58;1.25;;;;;;;;;;4992940;28;20117;-65
2023/07/30 12:53:00;;;;;;;3.00;1.42;;;;;;;;;;4991187;28;20061;-65
2023/07/30 12:55:25;;;;;;;1.90;1.27;;;;;;;;;;4997519;28;20044;-65
2023/07/30 12:57:51;;;;;;;2.47;1.33;;;;;;;;;;4998189;28;20545;-65
2023/07/30 13:00:17;;;;;;;2.17;1.30;;;;;;;;;;4982875;28;20062;-65
2023/07/30 13:02:43;;;;;;;2.92;1.55;;;;;;;;;;4991562;28;20557;-65
2023/07/30 13:05:08;;;;;;;3.13;1.70;;;;;;;;;;4997780;28;20120;-65
2023/07/30 13:07:33;;;;;;;3.28;1.65;;;;;;;;;;5000842;28;20033;-65
2023/07/30 13:10:08;;;;;;;3.75;1.60;;;;;;;;;;4996105;28;20387;-65
2023/07/30 13:12:35;;;;;;;2.15;1.60;;;;;;;;;;4985236;28;20041;-65
2023/07/30 13:15:01;;;;;;;2.13;1.42;;;;;;;;;;4999189;28;20092;-65
2023/07/30 13:17:27;;;;;;;1.80;1.52;;;;;;;;;;4996481;28;20500;-65
2023/07/30 13:19:52;;;;;;;3.25;1.52;;;;;;;;;;4996130;28;20073;-65
2023/07/30 13:22:17;;;;;;;3.10;1.88;;;;;;;;;;4985614;28;20897;-65
2023/07/30 13:24:43;;;;;;;3.72;1.60;;;;;;;;;;4997741;28;20044;-65
2023/07/30 13:27:08;;;;;;;2.25;1.40;;;;;;;;;;4988734;28;20121;-65
2023/07/30 13:29:34;;;;;;;2.40;1.25;;;;;;;;;;4979480;28;20504;-65
2023/07/30 13:31:59;;;;;;;3.75;1.67;;;;;;;;;;4995393;28;20043;-65
2023/07/30 13:34:24;;;;;;;3.70;1.70;;;;;;;;;;4996933;28;20566;-65
2023/07/30 13:36:50;;;;;;;2.50;1.50;;;;;;;;;;4993804;28;20041;-65
2023/07/30 13:39:15;;;;;;;2.83;1.40;;;;;;;;;;4998378;28;20045;-65
2023/07/30 13:41:41;;;;;;;2.70;1.45;;;;;;;;;;4972576;28;20450;-65
2023/07/30 13:44:06;;;;;;;2.92;2.00;;;;;;;;;;4978634;28;20037;-65
2023/07/30 13:46:31;;;;;;;2.67;1.52;;;;;;;;;;5003573;28;20042;-65
2023/07/30 13:48:57;;;;;;;4.18;1.52;;;;;;;;;;4998760;28;20069;-64
2023/07/30 13:51:22;;;;;;;3.22;1.60;;;;;;;;;;4997614;28;20082;-65
2023/07/30 13:53:47;;;;;;;2.53;1.73;;;;;;;;;;4997907;28;20754;-65
2023/07/30 13:56:14;;;;;;;3.60;1.50;;;;;;;;;;4974200;28;20042;-65
2023/07/30 13:58:39;;;;;;;3.70;1.70;;;;;;;;;;4985537;28;20044;-65
2023/07/30 14:01:06;;;;;;;3.60;1.70;;;;;;;;;;5000572;28;20046;-65
2023/07/30 14:03:31;;;;;;;2.13;1.65;;;;;;;;;;5001225;28;20123;-65
2023/07/30 14:05:57;;;;;;;5.35;1.88;;;;;;;;;;5000078;28;20038;-65
2023/07/30 14:08:22;;;;;;;2.90;1.75;;;;;;;;;;4994722;28;20057;-65
2023/07/30 14:10:48;;;;;;;4.65;1.67;;;;;;;;;;5000606;28;20044;-65
2023/07/30 14:13:13;;;;;;;3.55;1.70;;;;;;;;;;5003816;28;20092;-65
2023/07/30 14:15:38;;;;;;;3.00;1.77;;;;;;;;;;4989554;28;20058;-65
2023/07/30 14:18:04;;;;;;;3.58;1.70;;;;;;;;;;4996400;28;20121;-65
2023/07/30 14:20:29;;;;;;;3.40;1.90;;;;;;;;;;5000850;28;20584;-65
2023/07/30 14:22:54;;;;;;;3.90;1.52;;;;;;;;;;4985972;28;20037;-64
2023/07/30 14:25:20;;;;;;;3.75;1.50;;;;;;;;;;5000287;28;20053;-65
2023/07/30 14:27:45;;;;;;;5.07;3.40;;;;;;;;;;4995902;28;20120;-65
2023/07/30 14:30:11;;;;;;;2.88;1.50;;;;;;;;;;4991492;28;20034;-65
2023/07/30 14:32:36;;;;;;;6.38;2.13;;;;;;;;;;4982939;28;20043;-64
2023/07/30 14:35:02;;;;;;;2.70;1.55;;;;;;;;;;4991827;28;20049;-65
2023/07/30 14:37:27;;;;;;;3.60;1.70;;;;;;;;;;4985904;28;20041;-65